Time;durP1;ratioP1;P1;durP2;ratioP2;P2;SDS_P1;SDS_P2;PMS_P1;PMS_P2;Temp;Humidity;BMP_temperature;BMP_pressure;BME280_temperature;BME280_humidity;BME280_pressure;Samples;Min_cycle;Max_cycle;Signal;HPM_P1;HPM_P2
2021/11/22 00:01:16;;;;;;;8.38;3.72;;;;;;;26.09;31.95;96278.22;5024630;28;20036;-34
2021/11/22 00:03:42;;;;;;;4.00;3.33;;;;;;;26.09;31.89;96267.69;5023450;28;20154;-32
2021/11/22 00:06:07;;;;;;;5.18;3.58;;;;;;;26.08;31.99;96272.09;5024784;28;20040;-32
2021/11/22 00:08:33;;;;;;;5.75;3.70;;;;;;;26.08;31.90;96274.72;5023746;28;20033;-31
2021/11/22 00:10:58;;;;;;;4.10;3.58;;;;;;;26.10;31.81;96280.72;5024662;28;20079;-31
2021/11/22 00:13:24;;;;;;;3.97;3.10;;;;;;;26.08;31.95;96282.59;5025153;28;20048;-31
2021/11/22 00:15:52;;;;;;;4.13;3.13;;;;;;;26.08;31.91;96287.84;5025285;28;20029;-30
2021/11/22 00:18:17;;;;;;;4.55;3.20;;;;;;;26.09;32.04;96284.28;5023297;28;20079;-30
2021/11/22 00:20:42;;;;;;;4.90;3.40;;;;;;;26.07;32.04;96280.91;5022009;28;20024;-32
2021/11/22 00:23:08;;;;;;;5.35;3.08;;;;;;;26.09;31.98;96286.09;5028035;28;20065;-33
2021/11/22 00:25:33;;;;;;;4.93;3.25;;;;;;;26.08;32.30;96287.84;5027206;28;20033;-30
2021/11/22 00:27:59;;;;;;;4.50;3.00;;;;;;;26.06;31.99;96284.50;5028179;28;20305;-29
2021/11/22 00:30:24;;;;;;;7.03;3.50;;;;;;;26.08;32.04;96289.63;5027738;28;20055;-30
2021/11/22 00:32:50;;;;;;;3.80;3.08;;;;;;;26.07;31.81;96286.19;5021511;28;20029;-32
2021/11/22 00:35:15;;;;;;;5.38;3.60;;;;;;;26.07;32.26;96291.44;5021410;28;20036;-30
2021/11/22 00:37:43;;;;;;;4.10;2.90;;;;;;;26.05;31.96;96295.91;5023613;28;20575;-32
2021/11/22 00:40:10;;;;;;;4.95;3.05;;;;;;;26.06;31.75;96305.50;5037197;28;20052;-31
2021/11/22 00:42:36;;;;;;;2.90;2.60;;;;;;;26.05;31.93;96301.16;5024227;28;20041;-30
2021/11/22 00:45:02;;;;;;;5.38;3.33;;;;;;;26.06;31.97;96315.16;5020666;28;20048;-31
2021/11/22 00:47:28;;;;;;;4.25;2.97;;;;;;;26.05;32.04;96302.97;5020223;28;20032;-32
2021/11/22 00:49:53;;;;;;;5.15;3.20;;;;;;;26.05;31.83;96306.41;5025465;28;20497;-32
2021/11/22 00:52:19;;;;;;;4.28;3.03;;;;;;;26.04;31.81;96302.09;5021058;28;20017;-31
2021/11/22 00:54:44;;;;;;;4.43;2.95;;;;;;;26.03;31.80;96305.69;5036362;28;20452;-31
2021/11/22 00:57:10;;;;;;;4.90;3.30;;;;;;;26.04;31.81;96306.50;5022052;28;20025;-32
2021/11/22 00:59:35;;;;;;;4.43;3.40;;;;;;;26.04;31.96;96309.97;5028348;28;20562;-33
2021/11/22 01:02:01;;;;;;;3.97;2.58;;;;;;;26.02;31.83;96309.25;5020387;28;20028;-33
2021/11/22 01:04:27;;;;;;;6.75;3.20;;;;;;;26.03;31.83;96315.31;5025175;28;20029;-29
2021/11/22 01:06:52;;;;;;;3.50;2.95;;;;;;;26.04;31.77;96322.25;5024533;28;20028;-33
2021/11/22 01:09:18;;;;;;;4.13;2.80;;;;;;;26.03;31.83;96326.69;5024686;28;20512;-31
2021/11/22 01:11:43;;;;;;;4.88;3.00;;;;;;;26.03;31.90;96325.84;5021167;28;20599;-31
2021/11/22 01:14:09;;;;;;;4.88;3.08;;;;;;;26.01;31.91;96323.28;5022382;28;20031;-29
2021/11/22 01:16:34;;;;;;;4.35;2.80;;;;;;;26.02;31.87;96324.16;5023171;28;20033;-32
2021/11/22 01:19:00;;;;;;;3.67;2.80;;;;;;;26.02;31.81;96332.03;5022877;28;20037;-29
2021/11/22 01:21:25;;;;;;;5.47;3.15;;;;;;;26.01;31.77;96328.53;5019892;28;20029;-30
2021/11/22 01:23:51;;;;;;;4.07;2.55;;;;;;;26.01;31.87;96327.72;5022070;28;20040;-31
2021/11/22 01:26:16;;;;;;;3.70;2.90;;;;;;;26.01;31.85;96333.78;5021286;28;20036;-32
2021/11/22 01:28:42;;;;;;;3.88;2.75;;;;;;;26.00;31.93;96329.50;5024325;28;20108;-32
2021/11/22 01:31:07;;;;;;;3.08;2.40;;;;;;;26.00;31.74;96326.88;5019935;28;20025;-29
2021/11/22 01:33:32;;;;;;;5.45;2.75;;;;;;;26.00;31.80;96333.91;5023977;28;20053;-33
2021/11/22 01:35:58;;;;;;;4.07;2.80;;;;;;;25.99;31.90;96327.81;5020485;28;20454;-32
2021/11/22 01:38:23;;;;;;;3.55;2.67;;;;;;;26.00;31.86;96333.91;5022361;28;20037;-32
2021/11/22 01:40:49;;;;;;;3.85;2.90;;;;;;;26.00;31.72;96332.13;5020622;28;20022;-32
2021/11/22 01:43:15;;;;;;;3.03;2.33;;;;;;;25.99;31.75;96330.44;5022559;28;20241;-28
2021/11/22 01:45:42;;;;;;;3.42;2.47;;;;;;;25.98;31.97;96327.91;5023320;28;21720;-32
2021/11/22 01:48:07;;;;;;;2.72;2.30;;;;;;;25.98;31.95;96328.75;5020924;28;20035;-31
2021/11/22 01:50:32;;;;;;;2.67;2.42;;;;;;;25.98;31.87;96326.13;5020664;28;20033;-31
2021/11/22 01:52:58;;;;;;;3.60;2.83;;;;;;;25.97;31.69;96321.78;5019475;28;20032;-34
2021/11/22 01:55:26;;;;;;;4.32;2.50;;;;;;;25.97;31.85;96332.28;5020980;28;20041;-35
2021/11/22 01:57:52;;;;;;;3.88;2.70;;;;;;;25.96;31.81;96335.88;5019337;28;20033;-32
2021/11/22 02:00:19;;;;;;;4.55;2.85;;;;;;;25.96;31.80;96341.13;5020422;28;20035;-30
2021/11/22 02:02:45;;;;;;;5.05;2.92;;;;;;;25.97;31.79;96342.78;5020283;28;20053;-32
2021/11/22 02:05:10;;;;;;;3.28;2.60;;;;;;;25.97;31.67;96342.78;5023486;28;20577;-29
2021/11/22 02:07:36;;;;;;;3.28;2.40;;;;;;;25.96;31.83;96341.13;5024805;28;20654;-35
2021/11/22 02:10:03;;;;;;;5.35;2.80;;;;;;;25.96;31.73;96341.13;5023516;28;20105;-31
2021/11/22 02:12:31;;;;;;;3.60;2.53;;;;;;;25.95;31.85;96337.66;5026119;28;20270;-32
2021/11/22 02:14:57;;;;;;;3.70;2.88;;;;;;;25.96;31.83;96343.75;5021578;28;20025;-30
2021/11/22 02:17:22;;;;;;;3.80;2.80;;;;;;;25.95;31.88;96349.94;5022047;28;20036;-35
2021/11/22 02:20:00;;;;;;;3.25;2.28;;;;;;;25.95;31.87;96347.31;5021581;28;20044;-33
2021/11/22 02:22:26;;;;;;;3.35;2.50;;;;;;;25.94;31.99;96348.25;5021458;28;20792;-32
2021/11/22 02:24:51;;;;;;;4.75;2.47;;;;;;;25.93;31.78;96354.44;5026283;28;20025;-34
2021/11/22 02:27:16;;;;;;;3.72;2.58;;;;;;;25.94;31.71;96353.50;5023253;28;20052;-34
2021/11/22 02:29:42;;;;;;;3.10;2.58;;;;;;;25.94;31.83;96356.94;5024503;28;20033;-36
2021/11/22 02:32:07;;;;;;;3.45;2.55;;;;;;;25.93;31.96;96351.81;5022429;28;20474;-31
2021/11/22 02:34:33;;;;;;;3.42;2.60;;;;;;;25.91;31.81;96356.31;5019510;28;20031;-31
2021/11/22 02:36:58;;;;;;;5.25;2.53;;;;;;;25.92;31.78;96360.63;5019107;28;20036;-32
2021/11/22 02:39:23;;;;;;;4.07;2.20;;;;;;;25.92;31.85;96360.63;5021465;28;20033;-32
2021/11/22 02:41:49;;;;;;;2.70;2.25;;;;;;;25.91;31.82;96359.78;5019619;28;20082;-31
2021/11/22 02:44:14;;;;;;;2.75;2.47;;;;;;;25.92;31.87;96360.63;5041097;28;21827;-33
2021/11/22 02:46:40;;;;;;;3.45;2.25;;;;;;;25.91;31.82;96358.94;5026908;28;20035;-30
2021/11/22 02:49:05;;;;;;;2.47;2.20;;;;;;;25.91;31.82;96364.19;5024497;28;20040;-34
2021/11/22 02:51:30;;;;;;;3.08;2.20;;;;;;;25.90;31.72;96365.13;5024304;28;20028;-30
2021/11/22 02:54:00;;;;;;;2.65;2.22;;;;;;;25.91;31.91;96367.66;5026261;28;20036;-36
2021/11/22 02:56:29;;;;;;;3.03;2.50;;;;;;;25.90;31.77;96362.50;5022537;28;20739;-34
2021/11/22 02:58:54;;;;;;;3.03;2.25;;;;;;;25.89;31.79;96371.31;5022162;28;20087;-29
2021/11/22 03:01:20;;;;;;;2.88;2.20;;;;;;;25.90;31.83;96368.56;5030095;28;20497;-32
2021/11/22 03:03:45;;;;;;;2.45;2.10;;;;;;;25.89;32.07;96371.31;5024926;28;20029;-35
2021/11/22 03:06:13;;;;;;;2.90;2.20;;;;;;;25.89;31.78;96366.91;5024597;28;20568;-30
2021/11/22 03:08:39;;;;;;;2.90;2.20;;;;;;;25.90;31.94;96365.13;5023452;28;20033;-30
2021/11/22 03:11:04;;;;;;;2.20;2.00;;;;;;;25.90;31.75;96367.75;5024862;28;20459;-33
2021/11/22 03:13:30;;;;;;;2.47;2.10;;;;;;;25.88;31.86;96375.72;5028453;28;20032;-32
2021/11/22 03:15:55;;;;;;;2.70;2.28;;;;;;;25.88;31.73;96374.84;5024126;28;20036;-30
2021/11/22 03:18:21;;;;;;;4.10;2.20;;;;;;;25.89;31.82;96390.53;5026535;28;20113;-32
2021/11/22 03:20:46;;;;;;;2.83;2.17;;;;;;;25.86;31.82;96382.84;5023289;28;20040;-30
2021/11/22 03:23:12;;;;;;;3.13;2.20;;;;;;;25.88;31.88;96386.22;5029376;28;20024;-34
2021/11/22 03:25:37;;;;;;;3.58;2.40;;;;;;;25.88;31.82;96390.59;5025921;28;22501;-31
2021/11/22 03:28:03;;;;;;;2.83;2.17;;;;;;;25.87;31.91;96389.78;5023972;28;20026;-30
2021/11/22 03:30:28;;;;;;;3.22;2.28;;;;;;;25.87;31.77;96394.19;5025177;28;22013;-32
2021/11/22 03:32:54;;;;;;;2.30;1.92;;;;;;;25.86;31.87;96395.13;5027047;28;20037;-31
2021/11/22 03:35:19;;;;;;;5.15;2.50;;;;;;;25.86;31.86;96392.50;5024794;28;20056;-34
2021/11/22 03:37:46;;;;;;;3.25;2.30;;;;;;;25.86;31.94;96397.75;5021280;28;20673;-31
2021/11/22 03:40:11;;;;;;;3.10;2.35;;;;;;;25.86;31.86;96395.97;5023525;28;20695;-29
2021/11/22 03:42:41;;;;;;;3.97;2.15;;;;;;;25.86;31.84;96393.34;5025077;28;20032;-33
2021/11/22 03:45:08;;;;;;;3.17;2.30;;;;;;;25.85;31.87;96394.25;5023753;28;20044;-30
2021/11/22 03:47:33;;;;;;;3.35;2.20;;;;;;;25.85;31.83;96399.50;5025045;28;20115;-29
2021/11/22 03:49:59;;;;;;;2.97;2.00;;;;;;;25.84;31.99;96403.09;5028962;28;20097;-31
2021/11/22 03:52:24;;;;;;;2.22;1.95;;;;;;;25.85;31.74;96407.38;5023689;28;20044;-33
2021/11/22 03:54:49;;;;;;;4.00;2.50;;;;;;;25.85;31.77;96406.56;5021521;28;20025;-32
2021/11/22 03:57:15;;;;;;;3.85;2.17;;;;;;;25.85;31.86;96404.75;5023506;28;20024;-30
2021/11/22 03:59:40;;;;;;;3.00;1.95;;;;;;;25.81;31.81;96401.50;5025147;28;20079;-31
2021/11/22 04:02:06;;;;;;;2.65;2.05;;;;;;;25.85;31.87;96411.81;5023641;28;20090;-32
2021/11/22 04:04:31;;;;;;;2.70;2.30;;;;;;;25.83;31.78;96410.09;5023403;28;20017;-29
2021/11/22 04:06:57;;;;;;;2.55;2.10;;;;;;;25.82;31.78;96413.66;5025198;28;20021;-31
2021/11/22 04:09:22;;;;;;;2.88;1.95;;;;;;;25.83;31.92;96417.97;5022727;28;20109;-31
2021/11/22 04:11:47;;;;;;;2.72;2.03;;;;;;;25.82;31.77;96421.53;5023119;28;20037;-37
2021/11/22 04:14:13;;;;;;;2.67;2.13;;;;;;;25.82;31.73;96418.91;5022916;28;20792;-30
2021/11/22 04:16:38;;;;;;;2.50;2.00;;;;;;;25.82;31.73;96426.78;5024778;28;20025;-28
2021/11/22 04:19:04;;;;;;;2.80;1.98;;;;;;;25.82;31.71;96424.16;5022491;28;20044;-32
2021/11/22 04:21:29;;;;;;;3.90;2.42;;;;;;;25.82;31.74;96434.66;5023970;28;20025;-29
2021/11/22 04:23:55;;;;;;;2.70;2.03;;;;;;;25.82;31.84;96432.03;5024745;28;20493;-34
2021/11/22 04:26:21;;;;;;;3.08;2.25;;;;;;;25.83;31.72;96432.91;5026509;28;20100;-32
2021/11/22 04:28:46;;;;;;;3.05;2.10;;;;;;;25.82;31.66;96439.09;5025848;28;20039;-30
2021/11/22 04:31:12;;;;;;;4.60;2.10;;;;;;;25.81;31.84;96437.38;5026895;28;20477;-32
2021/11/22 04:33:38;;;;;;;4.32;1.90;;;;;;;25.82;31.67;96447.78;5024373;28;20497;-30
2021/11/22 04:36:04;;;;;;;2.20;1.77;;;;;;;25.80;31.91;96447.06;5024057;28;20441;-33
2021/11/22 04:38:30;;;;;;;1.92;1.73;;;;;;;25.81;31.83;96446.09;5026124;28;20029;-32
2021/11/22 04:40:55;;;;;;;2.72;1.90;;;;;;;25.80;31.90;96449.69;5021538;28;20759;-30
2021/11/22 04:43:20;;;;;;;2.40;2.20;;;;;;;25.81;31.80;96458.38;5019281;28;20029;-36
2021/11/22 04:45:46;;;;;;;3.17;2.30;;;;;;;25.80;31.68;96462.78;5021407;28;20040;-30
2021/11/22 04:48:11;;;;;;;2.40;1.90;;;;;;;25.81;31.91;96458.38;5021914;28;20029;-31
2021/11/22 04:50:37;;;;;;;2.83;2.05;;;;;;;25.80;31.70;96468.03;5025462;28;20025;-33
2021/11/22 04:53:04;;;;;;;2.45;1.95;;;;;;;25.80;31.99;96468.03;5030864;28;20183;-31
2021/11/22 04:55:29;;;;;;;1.98;1.83;;;;;;;25.80;31.82;96469.81;5020459;28;20037;-32
2021/11/22 04:57:55;;;;;;;2.25;1.80;;;;;;;25.79;31.79;96478.63;5021767;28;20324;-31
2021/11/22 05:00:22;;;;;;;2.00;1.80;;;;;;;25.79;31.87;96479.50;5036009;28;20045;-37
2021/11/22 05:02:47;;;;;;;2.22;1.90;;;;;;;25.79;31.82;96476.88;5018592;28;20112;-32
2021/11/22 05:05:13;;;;;;;1.77;1.60;;;;;;;25.80;31.78;96485.56;5020963;28;20021;-31
2021/11/22 05:07:39;;;;;;;3.08;2.30;;;;;;;25.79;31.74;96479.50;5022185;28;20666;-32
2021/11/22 05:10:05;;;;;;;2.33;1.60;;;;;;;25.78;31.86;96480.41;5024322;28;20264;-31
2021/11/22 05:12:30;;;;;;;1.90;1.70;;;;;;;25.78;31.68;96487.44;5022455;28;20037;-29
2021/11/22 05:14:56;;;;;;;2.47;2.10;;;;;;;25.77;31.82;96491.84;5022134;28;20029;-31
2021/11/22 05:17:21;;;;;;;1.70;1.60;;;;;;;25.78;31.83;96496.16;5019407;28;20024;-31
2021/11/22 05:19:47;;;;;;;2.17;1.90;;;;;;;25.79;31.71;96491.75;5021366;28;20029;-31
2021/11/22 05:22:18;;;;;;;2.22;1.83;;;;;;;25.78;31.82;96493.53;5021186;28;20082;-32
2021/11/22 05:24:48;;;;;;;2.72;2.00;;;;;;;25.77;31.67;96502.34;5023962;28;20026;-32
2021/11/22 05:27:25;;;;;;;2.90;1.70;;;;;;;25.77;31.83;96497.09;5019853;28;20528;-33
2021/11/22 05:29:50;;;;;;;2.38;1.55;;;;;;;25.77;31.82;96504.97;5021876;28;20033;-32
2021/11/22 05:32:17;;;;;;;2.15;1.83;;;;;;;25.77;31.79;96498.84;5022266;28;20028;-33
2021/11/22 05:34:50;;;;;;;2.95;1.80;;;;;;;25.76;31.80;96508.53;5021453;28;20029;-36
2021/11/22 05:37:15;;;;;;;2.00;1.80;;;;;;;25.75;31.82;96506.84;5020057;28;20935;-32
2021/11/22 05:39:41;;;;;;;1.80;1.58;;;;;;;25.76;31.77;96505.03;5020957;28;20033;-30
2021/11/22 05:42:06;;;;;;;1.70;1.60;;;;;;;25.75;31.69;96506.84;5023436;28;20029;-33
2021/11/22 05:44:34;;;;;;;1.77;1.67;;;;;;;25.75;31.70;96511.25;5021380;28;20025;-29
2021/11/22 05:47:00;;;;;;;1.83;1.65;;;;;;;25.75;31.64;96500.75;5024891;28;20032;-32
2021/11/22 05:49:27;;;;;;;2.08;1.77;;;;;;;25.75;31.71;96517.34;5021341;28;20205;-31
2021/11/22 05:51:53;;;;;;;2.47;1.85;;;;;;;25.74;31.91;96510.38;5022603;28;20018;-33
2021/11/22 05:54:19;;;;;;;2.35;1.65;;;;;;;25.74;31.67;96526.13;5025550;28;20052;-31
2021/11/22 05:56:44;;;;;;;2.33;1.90;;;;;;;25.74;31.68;96528.75;5021310;28;20035;-34
2021/11/22 05:59:11;;;;;;;2.00;1.80;;;;;;;25.73;31.82;96527.06;5019631;28;20108;-31
2021/11/22 06:01:36;;;;;;;2.50;1.83;;;;;;;25.73;31.65;96529.69;5021704;28;20059;-34
2021/11/22 06:04:01;;;;;;;3.30;1.63;;;;;;;25.74;31.83;96536.63;5020836;28;20032;-34
2021/11/22 06:06:27;;;;;;;2.15;1.67;;;;;;;25.73;31.70;96542.81;5021659;28;20028;-34
2021/11/22 06:08:52;;;;;;;3.35;1.70;;;;;;;25.73;31.72;96540.19;5021607;28;20037;-35
2021/11/22 06:11:18;;;;;;;1.58;1.17;;;;;;;25.73;31.72;96539.38;5021881;28;20596;-29
2021/11/22 06:13:43;;;;;;;2.15;1.80;;;;;;;25.74;31.80;96548.91;5022558;28;20043;-33
2021/11/22 06:16:08;;;;;;;1.50;1.40;;;;;;;25.73;31.79;96547.25;5022824;28;20025;-32
2021/11/22 06:18:34;;;;;;;1.75;1.65;;;;;;;25.73;31.65;96548.06;5022968;28;20032;-31
2021/11/22 06:20:59;;;;;;;2.42;1.60;;;;;;;25.73;31.63;96555.94;5025175;28;20037;-34
2021/11/22 06:23:25;;;;;;;1.65;1.25;;;;;;;25.73;31.78;96558.56;5027613;28;20032;-31
2021/11/22 06:25:50;;;;;;;7.85;1.50;;;;;;;25.72;31.48;96559.50;5024470;28;20077;-31
2021/11/22 06:28:15;;;;;;;2.28;1.67;;;;;;;25.72;31.84;96564.75;5026992;28;20028;-35
2021/11/22 06:30:41;;;;;;;1.70;1.50;;;;;;;25.71;31.72;96568.31;5025213;28;20615;-28
2021/11/22 06:33:07;;;;;;;1.92;1.50;;;;;;;25.72;31.64;96570.00;5024883;28;20087;-28
2021/11/22 06:35:33;;;;;;;1.50;1.40;;;;;;;25.72;31.73;96575.25;5024216;28;20025;-31
2021/11/22 06:37:59;;;;;;;1.83;1.40;;;;;;;25.73;31.73;96576.94;5038376;28;20025;-34
2021/11/22 06:40:24;;;;;;;1.42;1.30;;;;;;;25.72;31.88;96572.63;5025744;28;20104;-31
2021/11/22 06:42:50;;;;;;;1.77;1.38;;;;;;;25.68;31.74;96563.22;5023810;28;20017;-31
2021/11/22 06:45:17;;;;;;;1.50;1.40;;;;;;;25.72;31.74;96583.13;5024649;28;20025;-28
2021/11/22 06:47:42;;;;;;;1.40;1.30;;;;;;;25.73;31.73;96587.44;5023591;28;20021;-30
2021/11/22 06:50:08;;;;;;;5.95;2.50;;;;;;;25.73;31.67;96591.84;5023336;28;20100;-31
2021/11/22 06:52:33;;;;;;;2.30;1.90;;;;;;;25.70;31.38;96592.84;5026044;28;20059;-30
2021/11/22 06:54:59;;;;;;;3.28;1.48;;;;;;;25.70;31.42;96598.09;5023974;28;20282;-29
2021/11/22 06:57:24;;;;;;;1.40;1.30;;;;;;;25.70;31.58;96598.09;5022729;28;20041;-35
2021/11/22 06:59:50;;;;;;;2.35;1.60;;;;;;;25.70;31.82;96608.59;5024440;28;20493;-31
2021/11/22 07:02:16;;;;;;;2.45;1.30;;;;;;;25.70;31.61;96603.34;5025113;28;20040;-30
2021/11/22 07:04:43;;;;;;;4.45;1.40;;;;;;;25.69;31.85;96609.53;5025479;28;20025;-30
2021/11/22 07:07:08;;;;;;;1.92;1.20;;;;;;;25.70;31.73;96603.34;5039372;28;20724;-31
2021/11/22 07:09:33;;;;;;;1.92;1.30;;;;;;;25.70;31.67;96614.69;5022493;28;20087;-31
2021/11/22 07:11:59;;;;;;;1.83;1.33;;;;;;;25.70;31.95;96619.94;5030008;28;20048;-30
2021/11/22 07:14:24;;;;;;;5.32;1.20;;;;;;;25.71;31.73;96626.06;5024990;28;20151;-31
2021/11/22 07:16:52;;;;;;;3.35;1.50;;;;;;;25.73;31.79;96625.97;5024249;28;20115;-32
2021/11/22 07:19:17;;;;;;;20.58;1.48;;;;;;;25.73;31.92;96629.41;5023885;28;20760;-34
2021/11/22 07:21:42;;;;;;;1.85;1.50;;;;;;;25.73;31.91;96625.97;5019541;28;20036;-32
2021/11/22 07:24:08;;;;;;;5.40;1.35;;;;;;;25.73;31.83;96629.41;5022613;28;21278;-30
2021/11/22 07:26:34;;;;;;;6.00;1.42;;;;;;;25.71;31.84;96631.31;5024963;28;20029;-33
2021/11/22 07:28:59;;;;;;;5.68;2.30;;;;;;;25.73;31.65;96639.09;5019916;28;20049;-29
2021/11/22 07:31:24;;;;;;;12.48;1.90;;;;;;;25.74;31.71;96646.03;5023555;28;20082;-29
2021/11/22 07:33:50;;;;;;;4.32;1.42;;;;;;;25.73;31.67;96645.16;5022425;28;20612;-30
2021/11/22 07:36:15;;;;;;;3.83;1.50;;;;;;;25.73;31.64;96650.41;5024344;28;20029;-31
2021/11/22 07:38:41;;;;;;;4.85;1.33;;;;;;;25.74;31.69;96649.47;5025562;28;21256;-33
2021/11/22 07:41:07;;;;;;;4.70;1.63;;;;;;;25.74;31.74;96654.72;5012600;28;20049;-30
2021/11/22 07:43:32;;;;;;;3.95;1.17;;;;;;;25.74;32.16;96656.53;5024905;28;20029;-31
2021/11/22 07:45:59;;;;;;;4.90;1.50;;;;;;;25.75;31.88;96658.22;5021432;28;20029;-29
2021/11/22 07:48:24;;;;;;;5.55;1.70;;;;;;;25.74;31.85;96673.09;5023657;28;20029;-30
2021/11/22 07:50:50;;;;;;;7.95;2.80;;;;;;;25.75;31.25;96668.72;5023852;28;20021;-31
2021/11/22 07:53:15;;;;;;;7.40;2.67;;;;;;;25.72;30.84;96669.72;5024112;28;20072;-31
2021/11/22 07:55:40;;;;;;;14.40;2.78;;;;;;;25.69;30.28;96669.88;5023147;28;20017;-31
2021/11/22 07:58:06;;;;;;;3.08;2.13;;;;;;;25.64;30.08;96671.91;5023451;28;20036;-29
2021/11/22 08:00:31;;;;;;;2.92;2.03;;;;;;;25.64;30.09;96674.53;5023585;28;20051;-30
2021/11/22 08:02:57;;;;;;;7.45;2.58;;;;;;;25.62;30.25;96677.25;5024707;28;20040;-33
2021/11/22 08:05:23;;;;;;;5.22;2.10;;;;;;;25.60;30.17;96680.88;5024375;28;20504;-31
2021/11/22 08:07:53;;;;;;;4.82;2.35;;;;;;;25.57;30.16;96682.75;5022880;28;20529;-31
2021/11/22 08:10:27;;;;;;;7.63;2.30;;;;;;;25.54;30.19;96685.50;5021807;28;20024;-33
2021/11/22 08:12:54;;;;;;;10.18;2.30;;;;;;;25.52;30.27;96684.72;5026535;28;20052;-33
2021/11/22 08:15:19;;;;;;;3.53;2.28;;;;;;;25.50;30.29;96696.25;5021189;28;20424;-29
2021/11/22 08:17:45;;;;;;;6.95;2.60;;;;;;;25.48;30.35;96704.22;5006032;28;20032;-34
2021/11/22 08:20:11;;;;;;;7.28;3.00;;;;;;;25.48;30.09;96709.47;5024810;28;20029;-31
2021/11/22 08:22:36;;;;;;;8.10;2.58;;;;;;;25.46;30.35;96719.19;5024092;28;20060;-32
2021/11/22 08:25:03;;;;;;;5.68;2.47;;;;;;;25.44;30.32;96724.50;5027052;28;20041;-36
2021/11/22 08:27:29;;;;;;;7.30;2.42;;;;;;;25.44;30.35;96728.91;5039452;28;20108;-33
2021/11/22 08:29:56;;;;;;;5.65;2.38;;;;;;;25.43;30.12;96727.19;5027875;28;20034;-33
2021/11/22 08:32:21;;;;;;;5.88;2.25;;;;;;;25.42;30.71;96736.88;5024490;28;21997;-30
2021/11/22 08:34:47;;;;;;;5.55;2.10;;;;;;;25.43;31.10;96735.06;5038101;28;20029;-34
2021/11/22 08:37:12;;;;;;;5.20;2.22;;;;;;;25.43;31.27;96737.69;5025672;28;20985;-32
2021/11/22 08:39:38;;;;;;;8.02;2.58;;;;;;;25.45;31.28;96735.84;5023161;28;20084;-31
2021/11/22 08:42:03;;;;;;;4.65;2.20;;;;;;;25.46;31.73;96734.91;5018177;28;20124;-36
2021/11/22 08:44:30;;;;;;;4.75;2.10;;;;;;;25.47;31.67;96736.59;5036190;28;20386;-32
2021/11/22 08:46:55;;;;;;;4.10;1.90;;;;;;;25.49;31.75;96742.63;5010318;28;20075;-32
2021/11/22 08:49:21;;;;;;;7.63;2.28;;;;;;;25.50;32.02;96741.69;5023132;28;20037;-34
2021/11/22 08:51:46;;;;;;;3.45;2.00;;;;;;;25.51;31.94;96747.81;5023415;28;20685;-31
2021/11/22 08:54:12;;;;;;;7.22;2.15;;;;;;;25.52;32.01;96758.19;5025576;28;20029;-33
2021/11/22 08:56:37;;;;;;;5.70;1.88;;;;;;;25.53;31.98;96757.28;5023260;28;20033;-34
2021/11/22 08:59:03;;;;;;;4.97;2.00;;;;;;;25.55;31.86;96762.47;5023084;28;20021;-31
2021/11/22 09:01:28;;;;;;;8.32;2.22;;;;;;;25.55;31.95;96755.41;5023469;28;20029;-33
2021/11/22 09:03:55;;;;;;;6.57;1.88;;;;;;;25.57;32.12;96765.88;5024652;28;20476;-34
2021/11/22 09:06:20;;;;;;;7.43;1.90;;;;;;;25.59;32.13;96763.16;5034827;28;20032;-32
2021/11/22 09:08:46;;;;;;;5.15;2.03;;;;;;;25.59;32.03;96761.38;5024926;28;20037;-32
2021/11/22 09:11:12;;;;;;;4.32;2.00;;;;;;;25.61;32.06;96766.53;5036054;28;20110;-31
2021/11/22 09:13:38;;;;;;;3.92;1.70;;;;;;;25.61;32.19;96767.41;5034772;28;20407;-31
2021/11/22 09:16:04;;;;;;;7.53;2.25;;;;;;;25.63;32.13;96767.34;5022369;28;20398;-33
2021/11/22 09:18:29;;;;;;;22.75;2.22;;;;;;;25.64;32.14;96776.91;5021534;28;20040;-33
2021/11/22 09:20:55;;;;;;;4.63;2.47;;;;;;;25.55;28.56;96768.53;5026692;28;20523;-31
2021/11/22 09:23:20;;;;;;;4.82;2.20;;;;;;;25.39;27.56;96771.13;5027425;28;20021;-35
2021/11/22 09:25:45;;;;;;;4.20;2.08;;;;;;;25.24;28.13;96780.63;5021703;28;20228;-33
2021/11/22 09:28:11;;;;;;;7.72;1.70;;;;;;;25.14;28.77;96784.66;5018708;28;20195;-32
2021/11/22 09:30:37;;;;;;;5.57;2.03;;;;;;;25.08;29.13;96782.31;5022853;28;20044;-30
2021/11/22 09:33:04;;;;;;;5.20;2.08;;;;;;;25.03;29.58;96795.69;5021304;28;20021;-32
2021/11/22 09:35:29;;;;;;;5.53;2.10;;;;;;;25.03;29.93;96790.44;5019440;28;20103;-32
2021/11/22 09:37:55;;;;;;;5.50;2.00;;;;;;;25.03;30.24;96793.91;5022307;28;20112;-31
2021/11/22 09:40:20;;;;;;;3.58;2.10;;;;;;;25.03;30.24;96801.78;5028429;28;21067;-32
2021/11/22 09:42:46;;;;;;;4.63;2.17;;;;;;;25.06;30.45;96792.91;5038590;28;20033;-32
2021/11/22 09:45:12;;;;;;;4.63;2.03;;;;;;;25.10;30.54;96802.31;5025748;28;20914;-35
2021/11/22 09:47:37;;;;;;;6.70;1.98;;;;;;;25.12;30.54;96803.06;5004197;28;20037;-31
2021/11/22 09:50:06;;;;;;;9.60;2.28;;;;;;;25.15;30.67;96799.44;5037899;28;20116;-32
2021/11/22 09:52:31;;;;;;;12.25;2.45;;;;;;;25.18;30.79;96801.94;5022352;28;20025;-31
2021/11/22 09:54:57;;;;;;;7.97;2.30;;;;;;;25.20;30.79;96800.06;5022833;28;20083;-29
2021/11/22 09:57:22;;;;;;;5.32;1.83;;;;;;;25.22;30.75;96810.47;5019148;28;20031;-31
2021/11/22 09:59:48;;;;;;;11.02;2.10;;;;;;;25.24;30.98;96806.84;5022723;28;20635;-35
2021/11/22 10:02:14;;;;;;;9.77;2.60;;;;;;;25.27;30.95;96811.09;5007396;28;20030;-32
2021/11/22 10:04:39;;;;;;;16.08;3.60;;;;;;;25.28;31.06;96818.88;5020488;28;20017;-30
2021/11/22 10:07:09;;;;;;;29.92;5.80;;;;;;;25.31;31.04;96813.50;5022115;28;20033;-31
2021/11/22 10:09:40;;;;;;;32.92;5.63;;;;;;;25.34;31.23;96815.09;5027567;28;20029;-34
2021/11/22 10:12:16;;;;;;;40.90;5.82;;;;;;;25.36;31.12;96810.63;5023458;28;20595;-30
2021/11/22 10:14:52;;;;;;;16.17;4.68;;;;;;;25.39;31.19;96809.59;5025465;28;20151;-31
2021/11/22 10:17:38;;;;;;;21.38;4.80;;;;;;;25.41;31.36;96819.13;5025617;28;20024;-32
2021/11/22 10:20:07;;;;;;;27.45;4.40;;;;;;;25.42;31.21;96814.72;5026862;28;20025;-31
2021/11/22 10:22:50;;;;;;;20.20;5.05;;;;;;;25.45;31.43;96819.81;5027178;28;20029;-30
2021/11/22 10:25:24;;;;;;;15.93;4.30;;;;;;;25.47;31.38;96824.97;5026328;28;20075;-32
2021/11/22 10:27:49;;;;;;;18.45;4.07;;;;;;;25.48;31.49;96824.03;5027401;28;20025;-32
2021/11/22 10:30:36;;;;;;;16.02;3.90;;;;;;;25.49;31.37;96820.50;5041952;28;20025;-32
2021/11/22 10:33:02;;;;;;;14.30;4.05;;;;;;;25.51;31.43;96823.91;5027865;28;20029;-29
2021/11/22 10:35:29;;;;;;;16.23;4.13;;;;;;;25.51;31.33;96819.47;5042332;28;20500;-31
2021/11/22 10:38:16;;;;;;;18.83;4.45;;;;;;;25.51;31.44;96824.72;5027887;28;20394;-34
2021/11/22 10:40:50;;;;;;;14.63;3.63;;;;;;;25.53;31.46;96817.63;5040900;28;20556;-31
2021/11/22 10:43:16;;;;;;;12.60;3.65;;;;;;;25.54;31.48;96821.94;5041244;28;20033;-31
2021/11/22 10:45:50;;;;;;;13.75;4.00;;;;;;;25.55;31.35;96826.28;5027152;28;20476;-31
2021/11/22 10:48:22;;;;;;;12.73;3.80;;;;;;;25.56;31.62;96828.00;5039835;28;20604;-32
2021/11/22 10:50:55;;;;;;;9.68;3.35;;;;;;;25.59;31.34;96828.78;5027388;28;20575;-32
2021/11/22 10:53:31;;;;;;;12.35;3.47;;;;;;;25.60;31.45;96819.97;5029842;28;20094;-33
2021/11/22 10:55:57;;;;;;;12.40;3.55;;;;;;;25.60;31.57;96831.31;5026910;28;20439;-34
2021/11/22 10:58:31;;;;;;;9.05;2.83;;;;;;;25.61;31.67;96832.16;5027393;28;20022;-32
2021/11/22 11:00:56;;;;;;;12.70;2.78;;;;;;;25.61;31.62;96830.38;5028819;28;20512;-30
2021/11/22 11:03:22;;;;;;;10.50;3.03;;;;;;;25.63;31.66;96822.44;5023723;28;20036;-31
2021/11/22 11:05:56;;;;;;;9.63;2.95;;;;;;;25.62;31.55;96821.56;5025485;28;20036;-28
2021/11/22 11:08:21;;;;;;;9.10;3.58;;;;;;;25.63;31.66;96822.44;5027550;28;20037;-30
2021/11/22 11:10:50;;;;;;;10.30;2.72;;;;;;;25.64;31.66;96832.00;5026620;28;20738;-31
2021/11/22 11:13:16;;;;;;;12.52;3.40;;;;;;;25.63;31.55;96838.19;5017298;28;20040;-32
2021/11/22 11:15:42;;;;;;;12.30;2.95;;;;;;;25.62;31.58;96841.75;5027532;28;20033;-30
2021/11/22 11:18:22;;;;;;;9.35;3.20;;;;;;;25.63;31.64;96839.00;5046976;28;20021;-33
2021/11/22 11:20:48;;;;;;;13.05;2.25;;;;;;;25.63;31.60;96835.56;5029044;28;21010;-33
2021/11/22 11:23:13;;;;;;;7.35;2.80;;;;;;;25.64;31.64;96837.25;5030274;28;20025;-32
2021/11/22 11:25:38;;;;;;;5.65;2.50;;;;;;;25.66;31.53;96849.38;5036427;28;20025;-28
2021/11/22 11:28:04;;;;;;;7.75;2.50;;;;;;;25.65;31.55;96849.44;5027126;28;20360;-32